sensor_id;sensor_type;location;lat;lon;timestamp;pressure;altitude;pressure_sealevel;temperature;humidity
32083;BME280;18597;48.328;7.932;2023-04-21T00:00:57;99131.31;;;2.08;100.00
32083;BME280;18597;48.328;7.932;2023-04-21T00:03:25;99131.56;;;2.03;100.00
32083;BME280;18597;48.328;7.932;2023-04-21T00:05:54;99132.41;;;2.04;100.00
32083;BME280;18597;48.328;7.932;2023-04-21T00:08:23;99129.41;;;2.10;100.00
32083;BME280;18597;48.328;7.932;2023-04-21T00:10:51;99127.13;;;2.04;100.00
32083;BME280;18597;48.328;7.932;2023-04-21T00:13:16;99116.44;;;2.07;100.00
32083;BME280;18597;48.328;7.932;2023-04-21T00:18:36;99122.41;;;1.94;100.00
32083;BME280;18597;48.328;7.932;2023-04-21T00:21:01;99117.94;;;1.97;100.00
32083;BME280;18597;48.328;7.932;2023-04-21T00:23:27;99122.47;;;1.79;100.00
32083;BME280;18597;48.328;7.932;2023-04-21T00:25:53;99122.03;;;1.71;100.00
32083;BME280;18597;48.328;7.932;2023-04-21T00:28:19;99119.25;;;1.58;100.00
32083;BME280;18597;48.328;7.932;2023-04-21T00:30:45;99121.19;;;1.70;100.00
32083;BME280;18597;48.328;7.932;2023-04-21T00:33:10;99115.59;;;1.76;100.00
32083;BME280;18597;48.328;7.932;2023-04-21T00:35:36;99108.53;;;1.77;100.00
32083;BME280;18597;48.328;7.932;2023-04-21T00:38:02;99105.81;;;1.78;100.00
32083;BME280;18597;48.328;7.932;2023-04-21T00:40:28;99093.78;;;1.58;100.00
32083;BME280;18597;48.328;7.932;2023-04-21T00:42:54;99105.00;;;1.62;100.00
32083;BME280;18597;48.328;7.932;2023-04-21T00:45:19;99101.47;;;1.47;100.00
32083;BME280;18597;48.328;7.932;2023-04-21T00:47:45;99096.06;;;1.64;100.00
32083;BME280;18597;48.328;7.932;2023-04-21T00:50:11;99101.69;;;1.58;100.00
32083;BME280;18597;48.328;7.932;2023-04-21T00:52:40;99094.72;;;1.57;100.00
32083;BME280;18597;48.328;7.932;2023-04-21T00:55:07;99097.19;;;1.60;100.00
32083;BME280;18597;48.328;7.932;2023-04-21T00:57:35;99102.72;;;1.56;100.00
32083;BME280;18597;48.328;7.932;2023-04-21T01:00:03;99102.63;;;1.57;100.00
32083;BME280;18597;48.328;7.932;2023-04-21T01:02:31;99100.50;;;1.48;100.00
32083;BME280;18597;48.328;7.932;2023-04-21T01:04:59;99102.13;;;1.51;100.00
32083;BME280;18597;48.328;7.932;2023-04-21T01:07:25;99110.09;;;1.49;100.00
32083;BME280;18597;48.328;7.932;2023-04-21T01:09:51;99109.44;;;1.46;100.00
32083;BME280;18597;48.328;7.932;2023-04-21T01:12:17;99103.50;;;1.42;100.00
32083;BME280;18597;48.328;7.932;2023-04-21T01:14:43;99109.69;;;1.41;100.00
32083;BME280;18597;48.328;7.932;2023-04-21T01:17:08;99114.34;;;1.36;100.00
32083;BME280;18597;48.328;7.932;2023-04-21T01:19:39;99113.59;;;1.34;100.00
32083;BME280;18597;48.328;7.932;2023-04-21T01:22:08;99114.88;;;1.27;100.00
32083;BME280;18597;48.328;7.932;2023-04-21T01:24:39;99120.31;;;1.24;100.00
32083;BME280;18597;48.328;7.932;2023-04-21T01:27:15;99120.41;;;1.22;100.00
32083;BME280;18597;48.328;7.932;2023-04-21T01:29:42;99118.88;;;1.18;100.00
32083;BME280;18597;48.328;7.932;2023-04-21T01:32:18;99123.63;;;1.27;100.00
32083;BME280;18597;48.328;7.932;2023-04-21T01:34:44;99119.72;;;1.34;100.00
32083;BME280;18597;48.328;7.932;2023-04-21T01:37:14;99116.66;;;1.26;100.00
32083;BME280;18597;48.328;7.932;2023-04-21T01:39:44;99118.00;;;1.33;100.00
32083;BME280;18597;48.328;7.932;2023-04-21T01:42:10;99122.34;;;1.34;100.00
32083;BME280;18597;48.328;7.932;2023-04-21T01:44:36;99119.91;;;1.31;100.00
32083;BME280;18597;48.328;7.932;2023-04-21T01:47:03;99124.56;;;1.26;100.00
32083;BME280;18597;48.328;7.932;2023-04-21T01:49:28;99122.00;;;1.25;100.00
32083;BME280;18597;48.328;7.932;2023-04-21T01:51:54;99117.78;;;1.22;100.00
32083;BME280;18597;48.328;7.932;2023-04-21T01:54:20;99124.56;;;1.26;100.00
32083;BME280;18597;48.328;7.932;2023-04-21T01:56:46;99120.06;;;1.28;100.00
32083;BME280;18597;48.328;7.932;2023-04-21T01:59:12;99125.50;;;1.25;100.00
32083;BME280;18597;48.328;7.932;2023-04-21T02:01:37;99125.06;;;1.17;100.00
32083;BME280;18597;48.328;7.932;2023-04-21T02:04:04;99116.94;;;1.06;100.00
32083;BME280;18597;48.328;7.932;2023-04-21T02:06:30;99118.03;;;1.02;100.00
32083;BME280;18597;48.328;7.932;2023-04-21T02:08:57;99118.53;;;0.93;100.00
32083;BME280;18597;48.328;7.932;2023-04-21T02:11:24;99116.41;;;0.83;100.00
32083;BME280;18597;48.328;7.932;2023-04-21T02:13:52;99118.78;;;1.04;100.00
32083;BME280;18597;48.328;7.932;2023-04-21T02:16:18;99118.78;;;1.04;100.00
32083;BME280;18597;48.328;7.932;2023-04-21T02:18:46;99115.19;;;0.89;100.00
32083;BME280;18597;48.328;7.932;2023-04-21T02:21:13;99115.94;;;0.75;100.00
32083;BME280;18597;48.328;7.932;2023-04-21T02:23:40;99109.50;;;0.81;100.00
32083;BME280;18597;48.328;7.932;2023-04-21T02:26:06;99109.78;;;0.92;100.00
32083;BME280;18597;48.328;7.932;2023-04-21T02:28:32;99121.69;;;0.99;100.00
32083;BME280;18597;48.328;7.932;2023-04-21T02:30:57;99115.56;;;0.99;100.00
32083;BME280;18597;48.328;7.932;2023-04-21T02:33:23;99117.25;;;1.00;100.00
32083;BME280;18597;48.328;7.932;2023-04-21T02:35:49;99108.00;;;1.08;100.00
32083;BME280;18597;48.328;7.932;2023-04-21T02:38:15;99109.03;;;1.06;100.00
32083;BME280;18597;48.328;7.932;2023-04-21T02:40:40;99109.03;;;1.06;100.00
32083;BME280;18597;48.328;7.932;2023-04-21T02:43:07;99103.19;;;1.01;100.00
32083;BME280;18597;48.328;7.932;2023-04-21T02:45:33;99099.78;;;0.99;100.00
32083;BME280;18597;48.328;7.932;2023-04-21T02:47:59;99102.25;;;1.02;100.00
32083;BME280;18597;48.328;7.932;2023-04-21T02:50:25;99102.22;;;0.86;100.00
32083;BME280;18597;48.328;7.932;2023-04-21T02:52:50;99107.19;;;0.75;100.00
32083;BME280;18597;48.328;7.932;2023-04-21T02:55:16;99106.03;;;0.80;100.00
32083;BME280;18597;48.328;7.932;2023-04-21T02:57:42;99108.75;;;0.79;100.00
32083;BME280;18597;48.328;7.932;2023-04-21T03:00:08;99115.94;;;0.75;100.00
32083;BME280;18597;48.328;7.932;2023-04-21T03:02:37;99110.34;;;0.81;100.00
32083;BME280;18597;48.328;7.932;2023-04-21T03:05:03;99112.41;;;0.76;100.00
32083;BME280;18597;48.328;7.932;2023-04-21T03:07:29;99100.25;;;0.74;100.00
32083;BME280;18597;48.328;7.932;2023-04-21T03:09:54;99106.22;;;0.77;100.00
32083;BME280;18597;48.328;7.932;2023-04-21T03:12:20;99097.38;;;0.78;100.00
32083;BME280;18597;48.328;7.932;2023-04-21T03:14:46;99098.97;;;0.65;100.00
32083;BME280;18597;48.328;7.932;2023-04-21T03:17:12;99098.53;;;0.57;100.00
32083;BME280;18597;48.328;7.932;2023-04-21T03:19:38;99104.09;;;0.68;100.00
32083;BME280;18597;48.328;7.932;2023-04-21T03:22:04;99100.56;;;0.68;100.00
32083;BME280;18597;48.328;7.932;2023-04-21T03:24:31;99103.16;;;0.69;100.00
32083;BME280;18597;48.328;7.932;2023-04-21T03:26:57;99107.63;;;0.67;100.00
32083;BME280;18597;48.328;7.932;2023-04-21T03:29:23;99101.59;;;0.65;100.00
32083;BME280;18597;48.328;7.932;2023-04-21T03:31:49;99099.06;;;0.64;100.00
32083;BME280;18597;48.328;7.932;2023-04-21T03:34:14;99098.72;;;0.70;100.00
32083;BME280;18597;48.328;7.932;2023-04-21T03:36:41;99103.22;;;0.68;100.00
32083;BME280;18597;48.328;7.932;2023-04-21T03:39:06;99101.59;;;0.65;100.00
32083;BME280;18597;48.328;7.932;2023-04-21T03:41:33;99101.50;;;0.67;100.00
32083;BME280;18597;48.328;7.932;2023-04-21T03:43:59;99101.47;;;0.68;100.00
32083;BME280;18597;48.328;7.932;2023-04-21T03:46:24;99094.56;;;0.66;100.00
32083;BME280;18597;48.328;7.932;2023-04-21T03:48:50;99097.09;;;0.67;100.00
32083;BME280;18597;48.328;7.932;2023-04-21T03:51:16;99087.59;;;0.65;100.00
32083;BME280;18597;48.328;7.932;2023-04-21T03:53:42;99095.38;;;0.50;100.00
32083;BME280;18597;48.328;7.932;2023-04-21T03:56:08;99095.47;;;0.49;100.00
32083;BME280;18597;48.328;7.932;2023-04-21T03:58:34;99104.03;;;0.52;100.00
32083;BME280;18597;48.328;7.932;2023-04-21T04:01:00;99097.34;;;0.47;100.00
32083;BME280;18597;48.328;7.932;2023-04-21T04:03:26;99096.84;;;0.56;100.00
32083;BME280;18597;48.328;7.932;2023-04-21T04:05:52;99095.06;;;0.57;100.00
32083;BME280;18597;48.328;7.932;2023-04-21T04:08:18;99101.56;;;0.49;100.00
32083;BME280;18597;48.328;7.932;2023-04-21T04:10:44;99097.91;;;0.52;100.00
32083;BME280;18597;48.328;7.932;2023-04-21T04:13:10;99106.31;;;0.59;100.00
32083;BME280;18597;48.328;7.932;2023-04-21T04:15:36;99095.28;;;0.52;100.00
32083;BME280;18597;48.328;7.932;2023-04-21T04:18:01;99103.44;;;0.47;100.00
32083;BME280;18597;48.328;7.932;2023-04-21T04:20:27;99112.94;;;0.50;100.00
32083;BME280;18597;48.328;7.932;2023-04-21T04:22:53;99100.53;;;0.52;100.00
32083;BME280;18597;48.328;7.932;2023-04-21T04:25:19;99103.16;;;0.52;100.00
32083;BME280;18597;48.328;7.932;2023-04-21T04:27:46;99107.13;;;0.43;100.00
32083;BME280;18597;48.328;7.932;2023-04-21T04:30:14;99098.59;;;0.40;100.00
32083;BME280;18597;48.328;7.932;2023-04-21T04:32:40;99100.50;;;0.36;100.00
32083;BME280;18597;48.328;7.932;2023-04-21T04:35:07;99103.00;;;0.22;100.00
32083;BME280;18597;48.328;7.932;2023-04-21T04:37:35;99102.69;;;0.28;100.00
32083;BME280;18597;48.328;7.932;2023-04-21T04:40:03;99105.78;;;0.19;100.00
32083;BME280;18597;48.328;7.932;2023-04-21T04:42:31;99112.78;;;0.36;100.00
32083;BME280;18597;48.328;7.932;2023-04-21T04:44:58;99115.78;;;0.45;100.00
32083;BME280;18597;48.328;7.932;2023-04-21T04:47:24;99109.03;;;0.57;100.00
32083;BME280;18597;48.328;7.932;2023-04-21T04:49:50;99105.81;;;0.52;100.00
32083;BME280;18597;48.328;7.932;2023-04-21T04:52:16;99109.44;;;0.49;100.00
32083;BME280;18597;48.328;7.932;2023-04-21T04:54:41;99116.03;;;0.41;100.00
32083;BME280;18597;48.328;7.932;2023-04-21T04:57:07;99110.22;;;0.51;100.00
32083;BME280;18597;48.328;7.932;2023-04-21T04:59:33;99117.16;;;0.52;100.00
32083;BME280;18597;48.328;7.932;2023-04-21T05:02:01;99112.19;;;0.64;100.00
32083;BME280;18597;48.328;7.932;2023-04-21T05:04:27;99115.19;;;0.73;100.00
32083;BME280;18597;48.328;7.932;2023-04-21T05:06:53;99108.56;;;0.82;100.00
32083;BME280;18597;48.328;7.932;2023-04-21T05:09:19;99110.38;;;0.97;100.00
32083;BME280;18597;48.328;7.932;2023-04-21T05:11:45;99115.47;;;1.00;100.00
32083;BME280;18597;48.328;7.932;2023-04-21T05:14:11;99103.78;;;1.06;100.00
32083;BME280;18597;48.328;7.932;2023-04-21T05:16:36;99112.16;;;0.97;100.00
32083;BME280;18597;48.328;7.932;2023-04-21T05:19:03;99111.81;;;1.03;100.00
32083;BME280;18597;48.328;7.932;2023-04-21T05:21:29;99112.16;;;1.13;100.00
32083;BME280;18597;48.328;7.932;2023-04-21T05:23:57;99114.13;;;1.09;100.00
32083;BME280;18597;48.328;7.932;2023-04-21T05:26:24;99112.84;;;1.16;100.00
32083;BME280;18597;48.328;7.932;2023-04-21T05:28:54;99118.34;;;1.27;100.00
32083;BME280;18597;48.328;7.932;2023-04-21T05:31:21;99120.13;;;1.43;100.00
32083;BME280;18597;48.328;7.932;2023-04-21T05:33:47;99123.69;;;1.57;100.00
32083;BME280;18597;48.328;7.932;2023-04-21T05:36:13;99118.06;;;1.63;100.00
32083;BME280;18597;48.328;7.932;2023-04-21T05:38:39;99127.66;;;1.64;100.00
32083;BME280;18597;48.328;7.932;2023-04-21T05:41:06;99122.34;;;1.80;100.00
32083;BME280;18597;48.328;7.932;2023-04-21T05:43:31;99128.19;;;2.01;100.00
32083;BME280;18597;48.328;7.932;2023-04-21T05:46:00;99124.94;;;2.12;100.00
32083;BME280;18597;48.328;7.932;2023-04-21T05:48:26;99132.44;;;2.18;100.00
32083;BME280;18597;48.328;7.932;2023-04-21T05:50:53;99128.22;;;2.15;100.00
32083;BME280;18597;48.328;7.932;2023-04-21T05:53:20;99131.28;;;2.38;100.00
32083;BME280;18597;48.328;7.932;2023-04-21T05:55:48;99130.91;;;2.87;100.00
32083;BME280;18597;48.328;7.932;2023-04-21T05:58:13;99116.78;;;5.96;100.00
32083;BME280;18597;48.328;7.932;2023-04-21T06:00:39;99122.47;;;10.46;100.00
32083;BME280;18597;48.328;7.932;2023-04-21T06:03:05;99113.00;;;13.72;59.12
32083;BME280;18597;48.328;7.932;2023-04-21T06:05:31;99115.63;;;16.89;48.61
32083;BME280;18597;48.328;7.932;2023-04-21T06:07:58;99100.47;;;19.25;40.46
32083;BME280;18597;48.328;7.932;2023-04-21T06:10:24;99104.63;;;20.30;34.51
32083;BME280;18597;48.328;7.932;2023-04-21T06:12:49;99108.44;;;20.95;32.71
32083;BME280;18597;48.328;7.932;2023-04-21T06:15:15;99095.59;;;18.29;36.05
32083;BME280;18597;48.328;7.932;2023-04-21T06:17:41;99103.00;;;19.33;35.74
32083;BME280;18597;48.328;7.932;2023-04-21T06:20:07;99096.28;;;18.88;35.95
32083;BME280;18597;48.328;7.932;2023-04-21T06:22:34;99085.63;;;21.09;34.06
32083;BME280;18597;48.328;7.932;2023-04-21T06:24:59;99086.22;;;23.57;31.58
32083;BME280;18597;48.328;7.932;2023-04-21T06:27:25;99073.06;;;24.32;29.19
32083;BME280;18597;48.328;7.932;2023-04-21T06:29:53;99068.78;;;25.65;26.50
32083;BME280;18597;48.328;7.932;2023-04-21T06:32:20;99072.84;;;26.03;26.49
32083;BME280;18597;48.328;7.932;2023-04-21T06:34:46;99067.34;;;26.99;24.41
32083;BME280;18597;48.328;7.932;2023-04-21T06:37:12;99062.78;;;25.40;26.83
32083;BME280;18597;48.328;7.932;2023-04-21T06:39:38;99060.34;;;27.47;25.21
32083;BME280;18597;48.328;7.932;2023-04-21T06:42:03;99053.13;;;28.70;22.91
32083;BME280;18597;48.328;7.932;2023-04-21T06:44:29;99052.97;;;29.87;21.85
32083;BME280;18597;48.328;7.932;2023-04-21T06:46:56;99041.44;;;31.12;21.33
32083;BME280;18597;48.328;7.932;2023-04-21T06:49:22;99033.19;;;32.26;20.15
32083;BME280;18597;48.328;7.932;2023-04-21T06:51:48;99020.66;;;33.02;19.20
32083;BME280;18597;48.328;7.932;2023-04-21T06:54:14;99014.13;;;33.65;18.88
32083;BME280;18597;48.328;7.932;2023-04-21T06:56:40;99008.06;;;34.38;18.24
32083;BME280;18597;48.328;7.932;2023-04-21T06:59:08;99007.84;;;35.00;17.83
32083;BME280;18597;48.328;7.932;2023-04-21T07:01:34;99014.81;;;35.66;16.80
32083;BME280;18597;48.328;7.932;2023-04-21T07:04:00;99016.13;;;35.96;16.69
32083;BME280;18597;48.328;7.932;2023-04-21T07:06:26;99013.38;;;36.19;16.42
32083;BME280;18597;48.328;7.932;2023-04-21T07:08:52;99011.41;;;36.19;16.64
32083;BME280;18597;48.328;7.932;2023-04-21T07:11:18;99002.84;;;36.29;16.40
32083;BME280;18597;48.328;7.932;2023-04-21T07:13:44;99000.06;;;36.52;16.17
32083;BME280;18597;48.328;7.932;2023-04-21T07:16:10;98999.84;;;36.26;16.46
32083;BME280;18597;48.328;7.932;2023-04-21T07:18:37;98997.72;;;36.23;16.17
32083;BME280;18597;48.328;7.932;2023-04-21T07:21:03;98996.28;;;36.48;16.05
32083;BME280;18597;48.328;7.932;2023-04-21T07:23:29;98988.34;;;36.86;16.12
32083;BME280;18597;48.328;7.932;2023-04-21T07:25:55;98983.19;;;37.10;15.48
32083;BME280;18597;48.328;7.932;2023-04-21T07:28:20;98991.78;;;37.31;15.34
32083;BME280;18597;48.328;7.932;2023-04-21T07:30:46;98984.69;;;37.65;15.27
32083;BME280;18597;48.328;7.932;2023-04-21T07:33:13;98981.78;;;37.87;14.98
32083;BME280;18597;48.328;7.932;2023-04-21T07:35:39;98976.00;;;37.58;14.86
32083;BME280;18597;48.328;7.932;2023-04-21T07:38:04;98970.72;;;36.99;15.33
32083;BME280;18597;48.328;7.932;2023-04-21T07:40:30;98956.34;;;36.75;15.56
32083;BME280;18597;48.328;7.932;2023-04-21T07:42:56;98952.41;;;37.07;15.68
32083;BME280;18597;48.328;7.932;2023-04-21T07:45:22;98957.06;;;36.58;15.61
32083;BME280;18597;48.328;7.932;2023-04-21T07:47:49;98957.13;;;36.98;15.37
32083;BME280;18597;48.328;7.932;2023-04-21T07:50:14;98955.66;;;37.09;15.23
32083;BME280;18597;48.328;7.932;2023-04-21T07:52:40;98958.34;;;36.83;15.40
32083;BME280;18597;48.328;7.932;2023-04-21T07:55:06;98968.00;;;36.09;16.19
32083;BME280;18597;48.328;7.932;2023-04-21T07:57:32;98968.34;;;33.91;17.41
32083;BME280;18597;48.328;7.932;2023-04-21T08:00:04;98961.56;;;33.17;18.19
32083;BME280;18597;48.328;7.932;2023-04-21T08:02:30;98961.22;;;32.08;19.35
32083;BME280;18597;48.328;7.932;2023-04-21T08:04:56;98955.00;;;30.32;20.70
32083;BME280;18597;48.328;7.932;2023-04-21T08:07:22;98953.34;;;30.31;20.96
32083;BME280;18597;48.328;7.932;2023-04-21T08:09:48;98945.63;;;30.69;20.78
32083;BME280;18597;48.328;7.932;2023-04-21T08:12:14;98947.47;;;29.56;21.48
32083;BME280;18597;48.328;7.932;2023-04-21T08:14:40;98940.63;;;27.62;23.85
32083;BME280;18597;48.328;7.932;2023-04-21T08:17:06;98936.09;;;28.74;22.92
32083;BME280;18597;48.328;7.932;2023-04-21T08:19:31;98938.69;;;29.90;21.78
32083;BME280;18597;48.328;7.932;2023-04-21T08:21:57;98947.81;;;30.61;20.99
32083;BME280;18597;48.328;7.932;2023-04-21T08:24:23;98940.84;;;31.59;20.10
32083;BME280;18597;48.328;7.932;2023-04-21T08:26:49;98933.78;;;32.21;19.85
32083;BME280;18597;48.328;7.932;2023-04-21T08:29:15;98928.69;;;32.63;19.41
32083;BME280;18597;48.328;7.932;2023-04-21T08:31:41;98928.63;;;31.11;20.28
32083;BME280;18597;48.328;7.932;2023-04-21T08:34:07;98918.25;;;30.87;20.43
32083;BME280;18597;48.328;7.932;2023-04-21T08:36:33;98918.47;;;31.01;20.57
32083;BME280;18597;48.328;7.932;2023-04-21T08:39:00;98910.84;;;30.73;20.83
32083;BME280;18597;48.328;7.932;2023-04-21T08:41:26;98912.00;;;29.95;21.68
32083;BME280;18597;48.328;7.932;2023-04-21T08:43:52;98908.69;;;29.78;21.87
32083;BME280;18597;48.328;7.932;2023-04-21T08:46:18;98898.13;;;28.66;23.11
32083;BME280;18597;48.328;7.932;2023-04-21T08:48:46;98902.47;;;26.13;25.57
32083;BME280;18597;48.328;7.932;2023-04-21T08:51:20;98909.66;;;22.37;31.28
32083;BME280;18597;48.328;7.932;2023-04-21T08:53:46;98899.31;;;19.44;36.07
32083;BME280;18597;48.328;7.932;2023-04-21T08:56:12;98899.84;;;17.32;40.57
32083;BME280;18597;48.328;7.932;2023-04-21T08:58:38;98894.31;;;16.23;43.44
32083;BME280;18597;48.328;7.932;2023-04-21T09:01:04;98896.84;;;15.49;45.55
32083;BME280;18597;48.328;7.932;2023-04-21T09:03:30;98891.66;;;14.94;47.15
32083;BME280;18597;48.328;7.932;2023-04-21T09:06:06;98899.22;;;14.67;49.01
32083;BME280;18597;48.328;7.932;2023-04-21T09:08:36;98899.28;;;14.35;51.24
32083;BME280;18597;48.328;7.932;2023-04-21T09:11:03;98902.41;;;14.07;53.69
32083;BME280;18597;48.328;7.932;2023-04-21T09:13:35;98896.75;;;13.86;55.81
32083;BME280;18597;48.328;7.932;2023-04-21T09:16:04;98886.69;;;13.64;59.98
32083;BME280;18597;48.328;7.932;2023-04-21T09:18:39;98893.75;;;13.40;61.03
32083;BME280;18597;48.328;7.932;2023-04-21T09:21:10;98894.22;;;13.27;62.13
32083;BME280;18597;48.328;7.932;2023-04-21T09:23:49;98900.53;;;13.10;62.80
32083;BME280;18597;48.328;7.932;2023-04-21T09:26:18;98898.16;;;12.99;63.19
32083;BME280;18597;48.328;7.932;2023-04-21T09:28:48;98901.34;;;12.94;64.56
32083;BME280;18597;48.328;7.932;2023-04-21T09:31:19;98904.50;;;12.82;66.28
32083;BME280;18597;48.328;7.932;2023-04-21T09:33:50;98904.31;;;12.75;68.95
32083;BME280;18597;48.328;7.932;2023-04-21T09:36:26;98908.81;;;12.74;69.38
32083;BME280;18597;48.328;7.932;2023-04-21T09:41:30;98901.16;;;12.80;69.66
32083;BME280;18597;48.328;7.932;2023-04-21T09:43:57;98900.16;;;12.89;69.43
32083;BME280;18597;48.328;7.932;2023-04-21T09:46:29;98899.81;;;12.92;70.66
32083;BME280;18597;48.328;7.932;2023-04-21T09:48:59;98897.50;;;12.97;71.10
32083;BME280;18597;48.328;7.932;2023-04-21T09:51:26;98899.34;;;13.04;70.45
32083;BME280;18597;48.328;7.932;2023-04-21T09:53:59;98897.34;;;13.15;69.54
32083;BME280;18597;48.328;7.932;2023-04-21T09:56:36;98898.19;;;13.07;70.56
32083;BME280;18597;48.328;7.932;2023-04-21T09:59:06;98893.53;;;13.17;71.45
32083;BME280;18597;48.328;7.932;2023-04-21T10:01:37;98880.31;;;13.32;71.73
32083;BME280;18597;48.328;7.932;2023-04-21T10:04:03;98883.00;;;13.48;69.30
32083;BME280;18597;48.328;7.932;2023-04-21T10:06:29;98886.88;;;13.46;66.03
32083;BME280;18597;48.328;7.932;2023-04-21T10:08:56;98880.66;;;13.45;66.33
32083;BME280;18597;48.328;7.932;2023-04-21T10:11:23;98876.13;;;13.46;64.93
32083;BME280;18597;48.328;7.932;2023-04-21T10:13:49;98883.84;;;13.49;65.95
32083;BME280;18597;48.328;7.932;2023-04-21T10:16:17;98881.31;;;13.55;65.88
32083;BME280;18597;48.328;7.932;2023-04-21T10:18:44;98876.63;;;13.66;66.08
32083;BME280;18597;48.328;7.932;2023-04-21T10:21:16;98869.06;;;13.77;64.08
32083;BME280;18597;48.328;7.932;2023-04-21T10:23:47;98879.44;;;13.80;63.63
32083;BME280;18597;48.328;7.932;2023-04-21T10:26:22;98886.34;;;13.83;64.58
32083;BME280;18597;48.328;7.932;2023-04-21T10:31:32;98887.31;;;13.98;63.24
32083;BME280;18597;48.328;7.932;2023-04-21T10:39:45;98895.84;;;14.10;62.99
32083;BME280;18597;48.328;7.932;2023-04-21T10:45:06;98891.09;;;14.20;63.36
32083;BME280;18597;48.328;7.932;2023-04-21T10:47:52;98885.75;;;14.28;61.99
32083;BME280;18597;48.328;7.932;2023-04-21T10:50:27;98886.91;;;14.26;62.22
32083;BME280;18597;48.328;7.932;2023-04-21T10:53:08;98886.84;;;14.42;61.60
32083;BME280;18597;48.328;7.932;2023-04-21T10:55:37;98878.81;;;14.34;60.86
32083;BME280;18597;48.328;7.932;2023-04-21T10:58:06;98874.59;;;14.39;60.26
32083;BME280;18597;48.328;7.932;2023-04-21T11:00:34;98872.09;;;14.38;60.90
32083;BME280;18597;48.328;7.932;2023-04-21T11:03:05;98869.88;;;14.50;60.46
32083;BME280;18597;48.328;7.932;2023-04-21T11:05:37;98878.09;;;14.56;60.24
32083;BME280;18597;48.328;7.932;2023-04-21T11:08:09;98873.50;;;14.65;59.72
32083;BME280;18597;48.328;7.932;2023-04-21T11:10:52;98881.06;;;14.69;58.65
32083;BME280;18597;48.328;7.932;2023-04-21T11:13:24;98874.34;;;14.65;59.19
32083;BME280;18597;48.328;7.932;2023-04-21T11:15:56;98870.66;;;14.58;58.95
32083;BME280;18597;48.328;7.932;2023-04-21T11:18:33;98862.88;;;14.71;58.18
32083;BME280;18597;48.328;7.932;2023-04-21T11:21:16;98856.16;;;14.76;58.75
32083;BME280;18597;48.328;7.932;2023-04-21T11:23:53;98859.44;;;14.86;58.33
32083;BME280;18597;48.328;7.932;2023-04-21T11:26:33;98861.69;;;15.05;56.95
32083;BME280;18597;48.328;7.932;2023-04-21T11:29:02;98861.81;;;15.12;56.07
32083;BME280;18597;48.328;7.932;2023-04-21T11:31:29;98855.56;;;15.11;55.90
32083;BME280;18597;48.328;7.932;2023-04-21T11:33:55;98863.56;;;15.27;55.66
32083;BME280;18597;48.328;7.932;2023-04-21T11:36:22;98859.94;;;15.58;55.44
32083;BME280;18597;48.328;7.932;2023-04-21T11:38:48;98857.25;;;15.96;53.37
32083;BME280;18597;48.328;7.932;2023-04-21T11:41:22;98870.63;;;16.19;52.76
32083;BME280;18597;48.328;7.932;2023-04-21T11:43:50;98866.91;;;16.49;51.12
32083;BME280;18597;48.328;7.932;2023-04-21T11:46:25;98854.75;;;16.89;49.16
32083;BME280;18597;48.328;7.932;2023-04-21T11:49:02;98852.59;;;17.21;48.02
32083;BME280;18597;48.328;7.932;2023-04-21T11:51:44;98853.81;;;17.89;46.43
32083;BME280;18597;48.328;7.932;2023-04-21T11:54:13;98845.34;;;18.27;44.71
32083;BME280;18597;48.328;7.932;2023-04-21T11:56:42;98845.13;;;18.28;44.26
32083;BME280;18597;48.328;7.932;2023-04-21T11:59:10;98848.16;;;17.78;45.91
32083;BME280;18597;48.328;7.932;2023-04-21T12:01:53;98849.97;;;17.70;47.59
32083;BME280;18597;48.328;7.932;2023-04-21T12:04:23;98847.94;;;17.58;47.21
32083;BME280;18597;48.328;7.932;2023-04-21T12:07:04;98841.19;;;17.68;46.43
32083;BME280;18597;48.328;7.932;2023-04-21T12:09:30;98829.19;;;17.71;46.51
32083;BME280;18597;48.328;7.932;2023-04-21T12:11:57;98826.00;;;17.67;46.59
32083;BME280;18597;48.328;7.932;2023-04-21T12:14:24;98835.06;;;17.32;47.87
32083;BME280;18597;48.328;7.932;2023-04-21T12:16:54;98840.53;;;17.17;48.97
32083;BME280;18597;48.328;7.932;2023-04-21T12:19:34;98837.50;;;17.05;48.38
32083;BME280;18597;48.328;7.932;2023-04-21T12:22:01;98825.66;;;16.85;48.50
32083;BME280;18597;48.328;7.932;2023-04-21T12:24:31;98824.88;;;16.91;49.06
32083;BME280;18597;48.328;7.932;2023-04-21T12:26:56;98830.69;;;17.09;50.13
32083;BME280;18597;48.328;7.932;2023-04-21T12:29:22;98829.19;;;17.28;50.32
32083;BME280;18597;48.328;7.932;2023-04-21T12:31:48;98809.53;;;17.34;49.23
32083;BME280;18597;48.328;7.932;2023-04-21T12:34:14;98816.09;;;17.25;48.83
32083;BME280;18597;48.328;7.932;2023-04-21T12:36:40;98819.00;;;17.24;48.89
32083;BME280;18597;48.328;7.932;2023-04-21T12:39:06;98809.97;;;17.38;49.66
32083;BME280;18597;48.328;7.932;2023-04-21T12:41:32;98816.78;;;17.55;49.17
32083;BME280;18597;48.328;7.932;2023-04-21T12:43:59;98813.94;;;17.63;49.67
32083;BME280;18597;48.328;7.932;2023-04-21T12:46:25;98823.91;;;17.63;48.73
32083;BME280;18597;48.328;7.932;2023-04-21T12:48:51;98812.88;;;17.36;48.51
32083;BME280;18597;48.328;7.932;2023-04-21T12:51:17;98816.84;;;17.62;48.44
32083;BME280;18597;48.328;7.932;2023-04-21T12:53:43;98811.06;;;18.34;46.78
32083;BME280;18597;48.328;7.932;2023-04-21T12:56:09;98814.91;;;19.21;46.02
32083;BME280;18597;48.328;7.932;2023-04-21T12:58:35;98822.63;;;19.77;44.74
32083;BME280;18597;48.328;7.932;2023-04-21T13:01:01;98818.41;;;20.14;42.63
32083;BME280;18597;48.328;7.932;2023-04-21T13:03:27;98819.81;;;20.36;42.28
32083;BME280;18597;48.328;7.932;2023-04-21T13:05:53;98825.00;;;20.38;42.43
32083;BME280;18597;48.328;7.932;2023-04-21T13:08:20;98832.31;;;20.44;42.34
32083;BME280;18597;48.328;7.932;2023-04-21T13:10:46;98841.28;;;20.51;42.06
32083;BME280;18597;48.328;7.932;2023-04-21T13:13:12;98849.78;;;20.61;41.75
32083;BME280;18597;48.328;7.932;2023-04-21T13:15:38;98862.84;;;20.84;41.72
32083;BME280;18597;48.328;7.932;2023-04-21T13:18:04;98843.19;;;20.89;41.05